Time;durP1;ratioP1;P1;durP2;ratioP2;P2;SDS_P1;SDS_P2;PMS_P1;PMS_P2;Temp;Humidity;BMP_temperature;BMP_pressure;BME280_temperature;BME280_humidity;BME280_pressure;Samples;Min_cycle;Max_cycle;Signal;HPM_P1;HPM_P2
2021/01/07 00:00:11;;;;;;;5.65;4.25;;;17.90;44.10;;;;;;5080265;28;20686;-47
2021/01/07 00:02:41;;;;;;;7.57;4.78;;;17.90;44.20;;;;;;5078415;28;20048;-46
2021/01/07 00:05:08;;;;;;;7.38;5.07;;;17.90;44.10;;;;;;5079870;28;20397;-48
2021/01/07 00:07:36;;;;;;;9.15;5.57;;;17.90;44.20;;;;;;5072801;28;20060;-46
2021/01/07 00:10:05;;;;;;;4.88;4.13;;;17.90;44.10;;;;;;5081308;28;20048;-48
2021/01/07 00:12:32;;;;;;;6.15;4.40;;;17.90;44.20;;;;;;5081898;28;20055;-54
2021/01/07 00:14:58;;;;;;;6.18;4.63;;;17.90;44.20;;;;;;5075605;28;20523;-48
2021/01/07 00:17:25;;;;;;;6.15;5.00;;;17.90;44.20;;;;;;5076334;28;20113;-49
2021/01/07 00:19:52;;;;;;;5.13;4.63;;;17.90;44.20;;;;;;5076408;28;20045;-49
2021/01/07 00:22:18;;;;;;;6.63;4.85;;;17.90;44.20;;;;;;5081847;28;20523;-51
2021/01/07 00:24:46;;;;;;;7.72;4.85;;;17.90;44.20;;;;;;5075958;28;20683;-47
2021/01/07 00:27:12;;;;;;;7.00;4.75;;;17.90;44.20;;;;;;5080447;28;20135;-47
2021/01/07 00:29:39;;;;;;;6.00;4.70;;;17.90;44.20;;;;;;5075776;28;20051;-47
2021/01/07 00:32:06;;;;;;;7.88;4.88;;;17.90;44.20;;;;;;5073275;28;20044;-51
2021/01/07 00:34:33;;;;;;;6.53;4.88;;;17.90;44.80;;;;;;5074532;28;20663;-48
2021/01/07 00:37:01;;;;;;;8.93;4.95;;;17.90;44.20;;;;;;5077356;28;20607;-49
2021/01/07 00:39:27;;;;;;;6.50;4.90;;;17.90;44.20;;;;;;5083948;28;20462;-47
2021/01/07 00:41:56;;;;;;;9.48;4.50;;;17.90;44.20;;;;;;5085610;28;20776;-49
2021/01/07 00:44:22;;;;;;;6.88;5.53;;;17.90;44.20;;;;;;5079626;28;20056;-50
2021/01/07 00:46:50;;;;;;;6.70;5.07;;;17.90;44.20;;;;;;5076144;28;20130;-47
2021/01/07 00:49:17;;;;;;;7.03;5.68;;;17.90;44.20;;;;;;5083835;28;20055;-47
2021/01/07 00:51:44;;;;;;;6.25;4.57;;;17.90;44.20;;;;;;5077659;28;20408;-48
2021/01/07 00:54:11;;;;;;;5.30;4.57;;;17.90;44.20;;;;;;5084545;28;20044;-48
2021/01/07 00:56:39;;;;;;;6.38;4.97;;;17.90;44.20;;;;;;5072154;28;20107;-53
2021/01/07 00:59:08;;;;;;;6.07;4.45;;;17.90;44.30;;;;;;5073244;28;20044;-55
2021/01/07 01:01:43;;;;;;;5.32;3.92;;;17.90;44.30;;;;;;5074316;28;20052;-53
2021/01/07 01:04:10;;;;;;;7.60;4.70;;;17.90;44.20;;;;;;5074693;28;20075;-52
2021/01/07 01:06:37;;;;;;;5.25;4.70;;;17.90;44.30;;;;;;5073519;28;20136;-53
2021/01/07 01:09:05;;;;;;;5.95;4.07;;;17.90;44.30;;;;;;5078124;28;20048;-53
2021/01/07 01:11:37;;;;;;;6.28;4.65;;;17.90;44.30;;;;;;5072096;28;20539;-50
2021/01/07 01:14:04;;;;;;;6.93;4.22;;;17.90;44.30;;;;;;5073955;28;20037;-51
2021/01/07 01:16:31;;;;;;;5.38;3.90;;;17.90;44.30;;;;;;5071982;28;20079;-51
2021/01/07 01:18:58;;;;;;;7.07;4.95;;;17.90;44.30;;;;;;5078752;28;20044;-50
2021/01/07 01:21:24;;;;;;;4.57;3.75;;;17.90;44.30;;;;;;5080364;28;20127;-50
2021/01/07 01:23:51;;;;;;;5.75;5.18;;;17.90;44.30;;;;;;5073397;28;20598;-49
2021/01/07 01:26:18;;;;;;;5.05;4.30;;;17.90;44.30;;;;;;5073770;28;20071;-50
2021/01/07 01:28:45;;;;;;;4.78;3.75;;;17.90;44.30;;;;;;5073704;28;20049;-51
2021/01/07 01:31:12;;;;;;;6.80;4.22;;;17.90;44.30;;;;;;5079992;28;20041;-52
2021/01/07 01:33:40;;;;;;;5.80;4.38;;;17.90;44.30;;;;;;5073732;28;20048;-47
2021/01/07 01:36:07;;;;;;;5.18;3.17;;;17.90;44.30;;;;;;5079751;28;20059;-51
2021/01/07 01:38:35;;;;;;;5.90;4.25;;;17.90;44.30;;;;;;5075951;28;20388;-49
2021/01/07 01:41:03;;;;;;;6.80;4.03;;;17.90;44.30;;;;;;5073295;28;20040;-48
2021/01/07 01:43:30;;;;;;;4.22;3.55;;;17.90;44.30;;;;;;5072017;28;20412;-47
2021/01/07 01:45:57;;;;;;;5.50;3.78;;;17.90;44.20;;;;;;5077931;28;20159;-50
2021/01/07 01:48:25;;;;;;;5.53;4.25;;;17.90;44.20;;;;;;5080300;28;20130;-46
2021/01/07 01:50:53;;;;;;;6.20;3.90;;;17.90;44.20;;;;;;5076602;28;20051;-49
2021/01/07 01:53:21;;;;;;;5.68;4.32;;;17.90;44.20;;;;;;5086011;28;20045;-47
2021/01/07 01:55:49;;;;;;;5.78;4.38;;;17.90;44.20;;;;;;5072953;28;20923;-47
2021/01/07 01:58:16;;;;;;;4.90;3.70;;;17.90;44.80;;;;;;5077370;28;20048;-50
2021/01/07 02:00:43;;;;;;;5.68;4.38;;;17.90;44.20;;;;;;5073842;28;20621;-49
2021/01/07 02:03:10;;;;;;;6.53;3.90;;;17.90;44.20;;;;;;5073280;28;20044;-47
2021/01/07 02:05:37;;;;;;;5.03;3.60;;;17.90;44.20;;;;;;5075982;28;20044;-48
2021/01/07 02:08:06;;;;;;;5.10;3.70;;;17.90;44.20;;;;;;5078459;28;20054;-46
2021/01/07 02:10:33;;;;;;;7.60;3.75;;;17.90;44.20;;;;;;5074902;28;20144;-52
2021/01/07 02:13:02;;;;;;;5.15;3.85;;;17.90;44.10;;;;;;5077489;28;20086;-48
2021/01/07 02:15:28;;;;;;;5.25;4.40;;;17.90;44.10;;;;;;5081157;28;20615;-49
2021/01/07 02:17:56;;;;;;;3.53;3.22;;;17.90;44.10;;;;;;5077370;28;20044;-51
2021/01/07 02:20:24;;;;;;;4.50;3.75;;;17.90;44.10;;;;;;5079267;28;20079;-52
2021/01/07 02:22:52;;;;;;;5.30;3.75;;;17.90;44.10;;;;;;5088332;28;20040;-50
2021/01/07 02:25:18;;;;;;;3.08;2.78;;;17.90;44.10;;;;;;5081428;28;20056;-52
2021/01/07 02:27:45;;;;;;;3.17;2.65;;;17.90;44.10;;;;;;5077083;28;20490;-46
2021/01/07 02:30:13;;;;;;;4.85;4.25;;;17.90;44.10;;;;;;5076757;28;20072;-47
2021/01/07 02:32:40;;;;;;;3.67;2.90;;;17.90;44.10;;;;;;5076737;28;20078;-47
2021/01/07 02:35:08;;;;;;;4.28;3.83;;;17.90;44.10;;;;;;5080235;28;20067;-50
2021/01/07 02:37:36;;;;;;;5.20;4.05;;;17.90;44.10;;;;;;5074755;28;20052;-47
2021/01/07 02:40:04;;;;;;;6.18;4.15;;;17.90;44.10;;;;;;5081789;28;20163;-47
2021/01/07 02:42:32;;;;;;;3.67;2.97;;;17.90;44.10;;;;;;5084002;28;20161;-47
2021/01/07 02:44:59;;;;;;;3.85;3.53;;;17.90;44.10;;;;;;5077009;28;20049;-48
2021/01/07 02:47:26;;;;;;;4.55;3.70;;;17.90;44.10;;;;;;5078032;28;20397;-50
2021/01/07 02:49:52;;;;;;;3.72;3.35;;;17.90;44.10;;;;;;5078400;28;20048;-52
2021/01/07 02:52:19;;;;;;;3.72;3.42;;;17.90;44.10;;;;;;5082690;28;20069;-50
2021/01/07 02:54:46;;;;;;;3.95;3.63;;;17.90;44.00;;;;;;5077072;28;20052;-49
2021/01/07 02:57:13;;;;;;;4.47;3.97;;;17.90;44.00;;;;;;5081603;28;20523;-55
2021/01/07 02:59:39;;;;;;;6.15;3.53;;;17.90;44.00;;;;;;5079457;28;20068;-53
2021/01/07 03:02:06;;;;;;;2.83;2.47;;;17.90;44.00;;;;;;5078496;28;20044;-49
2021/01/07 03:04:32;;;;;;;3.72;3.30;;;17.90;44.00;;;;;;5083259;28;20614;-52
2021/01/07 03:06:59;;;;;;;5.20;2.67;;;17.90;44.00;;;;;;5081733;28;20052;-50
2021/01/07 03:09:25;;;;;;;5.63;3.42;;;17.90;44.10;;;;;;5083524;28;20047;-52
2021/01/07 03:11:52;;;;;;;3.97;3.25;;;17.90;44.00;;;;;;5077111;28;20041;-47
2021/01/07 03:14:19;;;;;;;4.63;3.08;;;17.90;44.00;;;;;;5076609;28;20119;-49
2021/01/07 03:16:46;;;;;;;4.00;3.30;;;17.90;44.00;;;;;;5076205;28;20050;-55
2021/01/07 03:19:12;;;;;;;3.92;3.03;;;17.90;44.00;;;;;;5083606;28;20135;-56
2021/01/07 03:21:42;;;;;;;3.85;3.50;;;17.90;44.00;;;;;;5076905;28;20049;-51
2021/01/07 03:24:09;;;;;;;3.25;2.95;;;17.90;44.00;;;;;;5081507;28;20143;-53
2021/01/07 03:26:36;;;;;;;4.10;3.33;;;17.90;44.00;;;;;;5078202;28;20800;-50
2021/01/07 03:29:04;;;;;;;4.53;3.60;;;17.90;44.00;;;;;;5078756;28;20048;-56
2021/01/07 03:31:31;;;;;;;5.05;3.97;;;17.90;43.90;;;;;;5073850;28;20624;-50
2021/01/07 03:33:57;;;;;;;5.13;3.83;;;17.90;44.00;;;;;;5080598;28;20060;-50
2021/01/07 03:36:24;;;;;;;4.45;3.08;;;17.90;44.00;;;;;;5085213;28;20048;-49
2021/01/07 03:38:51;;;;;;;4.45;3.05;;;17.90;44.00;;;;;;5076893;28;20048;-52
2021/01/07 03:41:17;;;;;;;4.32;3.28;;;17.90;44.00;;;;;;5075514;28;20047;-53
2021/01/07 03:43:44;;;;;;;4.20;3.40;;;17.90;44.00;;;;;;5076903;28;20049;-53
2021/01/07 03:46:11;;;;;;;3.65;3.15;;;17.90;44.00;;;;;;5083042;28;20523;-53
2021/01/07 03:48:38;;;;;;;3.72;3.42;;;17.90;44.00;;;;;;5078973;28;20423;-50
2021/01/07 03:51:05;;;;;;;5.15;3.17;;;17.90;43.90;;;;;;5081000;28;20067;-51
2021/01/07 03:53:31;;;;;;;4.07;2.95;;;17.90;44.00;;;;;;5077235;28;20043;-48
2021/01/07 03:55:58;;;;;;;4.60;2.85;;;17.90;44.00;;;;;;5078808;28;20128;-51
2021/01/07 03:58:24;;;;;;;2.95;2.65;;;17.90;44.00;;;;;;5075776;28;20099;-48
2021/01/07 04:00:51;;;;;;;3.25;2.95;;;17.90;43.90;;;;;;5081270;28;20082;-50
2021/01/07 04:03:19;;;;;;;5.07;3.85;;;17.90;43.90;;;;;;5076839;28;20040;-54
2021/01/07 04:05:45;;;;;;;5.07;3.40;;;17.90;43.90;;;;;;5078475;28;20116;-51
2021/01/07 04:08:12;;;;;;;3.85;3.10;;;17.90;44.00;;;;;;5074707;28;20400;-53
2021/01/07 04:10:38;;;;;;;4.53;3.20;;;17.90;44.00;;;;;;5074739;28;20037;-47
2021/01/07 04:13:05;;;;;;;4.15;3.45;;;17.90;44.00;;;;;;5083549;28;20078;-49
2021/01/07 04:15:32;;;;;;;4.53;2.97;;;17.90;44.00;;;;;;5081469;28;20667;-49
2021/01/07 04:17:58;;;;;;;3.15;2.88;;;17.90;44.00;;;;;;5080199;28;20051;-52
2021/01/07 04:20:26;;;;;;;3.28;2.67;;;17.90;44.00;;;;;;5076085;28;20044;-49
2021/01/07 04:22:53;;;;;;;4.22;2.75;;;17.90;44.00;;;;;;5071848;28;20130;-50
2021/01/07 04:25:19;;;;;;;4.18;3.58;;;17.90;44.00;;;;;;5077365;28;20095;-49
2021/01/07 04:27:46;;;;;;;2.47;2.25;;;17.90;44.00;;;;;;5080886;28;20102;-49
2021/01/07 04:30:14;;;;;;;4.53;3.30;;;17.90;44.00;;;;;;5074827;28;20076;-48
2021/01/07 04:32:40;;;;;;;4.45;2.63;;;17.90;44.00;;;;;;5077738;28;20036;-49
2021/01/07 04:35:07;;;;;;;6.28;4.20;;;17.90;44.00;;;;;;5074473;28;20076;-48
2021/01/07 04:37:35;;;;;;;3.90;3.35;;;17.90;44.00;;;;;;5075430;28;20045;-51
2021/01/07 04:40:04;;;;;;;3.78;3.45;;;17.90;44.00;;;;;;5074602;28;20047;-48
2021/01/07 04:42:31;;;;;;;3.25;2.63;;;17.90;44.00;;;;;;5078389;28;20119;-55
2021/01/07 04:45:00;;;;;;;3.67;3.40;;;17.90;44.00;;;;;;5079622;28;20625;-51
2021/01/07 04:47:26;;;;;;;4.57;3.22;;;17.90;44.00;;;;;;5074345;28;20512;-47
2021/01/07 04:49:53;;;;;;;4.78;3.50;;;17.90;44.00;;;;;;5070919;28;20066;-51
2021/01/07 04:52:20;;;;;;;4.75;3.65;;;17.90;44.00;;;;;;5077367;28;20055;-47
2021/01/07 04:54:48;;;;;;;4.63;2.50;;;17.90;44.00;;;;;;5080725;28;20043;-54
2021/01/07 04:57:14;;;;;;;5.38;3.80;;;17.90;44.00;;;;;;5081824;28;20040;-53
2021/01/07 04:59:41;;;;;;;3.47;2.80;;;17.90;44.00;;;;;;5086628;28;20067;-54
2021/01/07 05:02:08;;;;;;;3.83;3.45;;;17.90;44.00;;;;;;5072704;28;20098;-52
2021/01/07 05:04:47;;;;;;;4.82;3.33;;;17.90;44.00;;;;;;5077211;28;20044;-50
2021/01/07 05:07:16;;;;;;;3.85;3.35;;;17.90;44.00;;;;;;5074486;28;20082;-53
2021/01/07 05:09:42;;;;;;;5.00;4.05;;;17.90;44.00;;;;;;5073295;28;20076;-53
2021/01/07 05:12:10;;;;;;;4.93;3.70;;;17.90;44.00;;;;;;5081643;28;20583;-47
2021/01/07 05:14:43;;;;;;;5.70;3.63;;;17.90;44.00;;;;;;5074102;28;20043;-48
2021/01/07 05:17:12;;;;;;;3.47;3.03;;;17.90;44.00;;;;;;5072822;28;20135;-47
2021/01/07 05:19:38;;;;;;;3.20;2.85;;;17.90;44.00;;;;;;5074821;28;20052;-53
2021/01/07 05:22:06;;;;;;;4.40;3.88;;;17.90;44.00;;;;;;5077924;28;20075;-47
2021/01/07 05:24:33;;;;;;;3.50;3.20;;;17.90;44.00;;;;;;5073935;28;20044;-47
2021/01/07 05:27:06;;;;;;;3.67;3.25;;;17.90;44.10;;;;;;5078331;28;20388;-49
2021/01/07 05:29:34;;;;;;;3.47;2.95;;;17.90;44.00;;;;;;5073008;28;20056;-51
2021/01/07 05:32:01;;;;;;;4.20;3.72;;;17.90;44.00;;;;;;5074028;28;20548;-46
2021/01/07 05:34:27;;;;;;;3.05;2.80;;;17.90;44.00;;;;;;5074527;28;20074;-55
2021/01/07 05:36:58;;;;;;;5.47;3.83;;;17.90;44.00;;;;;;5080348;28;20056;-52
2021/01/07 05:39:33;;;;;;;6.20;4.57;;;17.90;44.00;;;;;;5078106;28;20047;-52
2021/01/07 05:42:01;;;;;;;6.45;3.38;;;17.90;44.00;;;;;;5073910;28;20044;-51
2021/01/07 05:44:31;;;;;;;3.95;3.17;;;17.90;44.00;;;;;;5074998;28;20044;-53
2021/01/07 05:46:59;;;;;;;5.85;3.70;;;17.90;44.10;;;;;;5069427;28;20080;-52
2021/01/07 05:49:36;;;;;;;4.10;3.70;;;17.90;44.00;;;;;;5077430;28;20045;-50
2021/01/07 05:52:06;;;;;;;4.20;3.00;;;17.90;44.60;;;;;;5074222;28;20049;-53
2021/01/07 05:54:33;;;;;;;5.53;3.50;;;17.90;44.00;;;;;;5078100;28;20193;-52
2021/01/07 05:57:03;;;;;;;4.65;3.33;;;17.90;44.00;;;;;;5076838;28;20041;-47
2021/01/07 05:59:33;;;;;;;5.30;3.70;;;17.90;44.00;;;;;;5073589;28;20044;-50
2021/01/07 06:02:03;;;;;;;5.00;3.22;;;17.90;44.00;;;;;;5085113;28;20087;-48
2021/01/07 06:04:32;;;;;;;4.40;3.47;;;17.90;44.00;;;;;;5077333;28;20139;-50
2021/01/07 06:06:59;;;;;;;2.88;2.50;;;17.90;44.00;;;;;;5075224;28;20502;-49
2021/01/07 06:09:29;;;;;;;4.43;3.97;;;17.90;44.00;;;;;;5081424;28;20097;-50
2021/01/07 06:11:58;;;;;;;3.83;3.20;;;17.90;44.00;;;;;;5079511;28;20040;-51
2021/01/07 06:14:25;;;;;;;3.95;3.65;;;17.90;44.00;;;;;;5073218;28;20516;-47
2021/01/07 06:16:53;;;;;;;3.42;3.00;;;17.90;44.00;;;;;;5076088;28;20044;-50
2021/01/07 06:19:31;;;;;;;4.03;2.70;;;17.80;44.00;;;;;;5088142;28;20064;-46
2021/01/07 06:22:00;;;;;;;5.78;3.55;;;17.90;44.00;;;;;;5080348;28;20048;-48
2021/01/07 06:24:27;;;;;;;3.50;2.83;;;17.90;44.00;;;;;;5080832;28;20033;-47
2021/01/07 06:26:54;;;;;;;3.17;2.85;;;17.90;44.00;;;;;;5073984;28;20126;-47
2021/01/07 06:29:20;;;;;;;3.60;2.80;;;17.80;44.00;;;;;;5070829;28;20500;-50
2021/01/07 06:31:55;;;;;;;4.32;3.83;;;17.90;44.00;;;;;;5073171;28;20047;-51
2021/01/07 06:34:26;;;;;;;4.72;3.70;;;17.90;43.90;;;;;;5081086;28;20109;-49
2021/01/07 06:36:55;;;;;;;6.28;3.92;;;17.90;44.00;;;;;;5074940;28;20063;-48
2021/01/07 06:39:22;;;;;;;4.93;4.28;;;17.80;43.90;;;;;;5078546;28;20041;-48
2021/01/07 06:41:53;;;;;;;3.80;3.10;;;17.80;43.90;;;;;;5076960;28;20194;-48
2021/01/07 06:44:21;;;;;;;7.35;3.40;;;17.90;43.90;;;;;;5075002;28;20048;-48
2021/01/07 06:46:48;;;;;;;3.28;2.97;;;17.90;43.90;;;;;;5069950;28;20078;-52
2021/01/07 06:49:20;;;;;;;4.57;3.40;;;17.80;43.90;;;;;;5077845;28;20674;-51
2021/01/07 06:51:51;;;;;;;4.68;3.35;;;17.90;44.00;;;;;;5081499;28;20045;-53
2021/01/07 06:54:19;;;;;;;3.78;3.25;;;17.90;43.90;;;;;;5077573;28;20386;-52
2021/01/07 06:56:50;;;;;;;5.70;3.53;;;17.90;44.00;;;;;;5076466;28;20075;-50
2021/01/07 06:59:19;;;;;;;4.25;3.33;;;17.90;43.90;;;;;;5077081;28;20068;-51
2021/01/07 07:01:47;;;;;;;5.38;3.15;;;17.90;43.90;;;;;;5079055;28;20480;-51
2021/01/07 07:04:24;;;;;;;3.30;3.00;;;17.90;43.90;;;;;;5077713;28;20045;-46
2021/01/07 07:06:57;;;;;;;3.45;3.00;;;17.90;43.90;;;;;;5081925;28;20076;-46
2021/01/07 07:09:26;;;;;;;3.20;2.88;;;17.90;44.00;;;;;;5084768;28;20120;-47
2021/01/07 07:11:54;;;;;;;4.25;3.10;;;17.90;44.00;;;;;;5077305;28;20485;-47
2021/01/07 07:14:22;;;;;;;4.80;3.45;;;17.90;44.00;;;;;;5074036;28;20036;-47
2021/01/07 07:16:49;;;;;;;5.43;3.10;;;17.90;43.90;;;;;;5076749;28;20048;-47
2021/01/07 07:19:27;;;;;;;5.43;3.97;;;17.80;43.90;;;;;;5077073;28;20101;-49
2021/01/07 07:21:57;;;;;;;5.30;2.97;;;17.90;43.90;;;;;;5078050;28;20072;-54
2021/01/07 07:24:33;;;;;;;4.18;3.78;;;17.90;43.90;;;;;;5081966;28;20519;-50
2021/01/07 07:27:04;;;;;;;3.45;3.15;;;17.90;43.90;;;;;;5081847;28;20059;-46
2021/01/07 07:29:34;;;;;;;4.70;3.25;;;17.90;44.00;;;;;;5078726;28;20178;-51
2021/01/07 07:32:01;;;;;;;3.05;2.78;;;17.90;44.00;;;;;;5073460;28;20444;-47
2021/01/07 07:34:30;;;;;;;3.35;3.05;;;17.90;44.00;;;;;;5081923;28;20053;-53
2021/01/07 07:36:57;;;;;;;3.42;3.13;;;17.90;44.00;;;;;;5089557;28;20059;-47
2021/01/07 07:39:28;;;;;;;5.38;2.40;;;17.90;43.90;;;;;;5076881;28;20075;-47
2021/01/07 07:42:11;;;;;;;5.15;3.45;;;17.90;43.90;;;;;;5080554;28;20056;-48
2021/01/07 07:44:38;;;;;;;4.78;2.95;;;17.90;43.90;;;;;;5077913;28;20108;-51
2021/01/07 07:47:05;;;;;;;3.60;3.22;;;17.80;43.90;;;;;;5087798;28;20044;-47
2021/01/07 07:49:32;;;;;;;7.68;3.40;;;17.80;43.90;;;;;;5077981;28;20051;-50
2021/01/07 07:51:59;;;;;;;6.30;3.47;;;17.90;43.90;;;;;;5078053;28;20041;-51
2021/01/07 07:54:26;;;;;;;5.72;3.90;;;17.80;43.80;;;;;;5076931;28;20044;-48
2021/01/07 07:56:58;;;;;;;3.95;3.22;;;17.80;43.80;;;;;;5078917;28;20047;-51
2021/01/07 07:59:27;;;;;;;4.90;3.63;;;17.90;43.80;;;;;;5074352;28;20159;-49
2021/01/07 08:01:54;;;;;;;5.53;3.72;;;17.90;43.80;;;;;;5075125;28;20522;-51
2021/01/07 08:04:23;;;;;;;5.03;4.63;;;17.90;43.80;;;;;;5077332;28;20524;-50
2021/01/07 08:06:51;;;;;;;7.13;3.33;;;17.80;43.70;;;;;;5079888;28;20098;-52
2021/01/07 08:09:19;;;;;;;6.25;4.32;;;17.80;43.70;;;;;;5078358;28;20535;-53
2021/01/07 08:11:48;;;;;;;4.82;4.00;;;17.90;43.70;;;;;;5077565;28;20047;-49
2021/01/07 08:14:26;;;;;;;5.30;3.83;;;17.90;43.70;;;;;;5087883;28;20122;-54
2021/01/07 08:16:57;;;;;;;3.90;2.90;;;17.90;43.60;;;;;;5074675;28;20101;-52
2021/01/07 08:19:30;;;;;;;3.72;2.72;;;17.90;43.80;;;;;;5081487;28;20036;-49
2021/01/07 08:21:57;;;;;;;3.33;2.10;;;17.90;44.00;;;;;;5075097;28;20049;-48
2021/01/07 08:24:25;;;;;;;1.65;1.52;;;17.80;44.00;;;;;;5079259;28;20524;-49
2021/01/07 08:27:13;;;;;;;2.50;1.77;;;17.80;44.10;;;;;;5079239;28;20044;-49
2021/01/07 08:29:44;;;;;;;4.53;2.38;;;17.90;44.20;;;;;;5076199;28;20056;-49
2021/01/07 08:32:12;;;;;;;2.65;2.20;;;17.80;44.30;;;;;;5073337;28;20181;-51
2021/01/07 08:34:39;;;;;;;1.88;1.58;;;17.90;44.40;;;;;;5078494;28;20060;-52
2021/01/07 08:37:10;;;;;;;3.20;2.20;;;17.80;44.30;;;;;;5078374;28;20056;-51
2021/01/07 08:39:38;;;;;;;3.33;1.73;;;17.80;44.40;;;;;;5075072;28;20055;-53
2021/01/07 08:42:06;;;;;;;5.75;2.63;;;17.90;44.50;;;;;;5075500;28;20039;-53
2021/01/07 08:44:33;;;;;;;6.20;3.33;;;17.90;44.40;;;;;;5073050;28;20080;-54
2021/01/07 08:47:01;;;;;;;4.38;2.13;;;17.80;44.30;;;;;;5074778;28;20048;-51
2021/01/07 08:49:28;;;;;;;4.88;2.33;;;17.90;44.40;;;;;;5073679;28;20136;-58
2021/01/07 08:51:59;;;;;;;5.50;3.83;;;17.80;44.40;;;;;;5078945;28;20393;-49
2021/01/07 08:54:27;;;;;;;7.47;3.17;;;17.90;44.40;;;;;;5078439;28;20036;-49
2021/01/07 08:56:56;;;;;;;5.55;4.53;;;17.80;44.30;;;;;;5074316;28;20041;-50
2021/01/07 08:59:29;;;;;;;6.50;4.22;;;17.90;44.20;;;;;;5074985;28;20125;-51
2021/01/07 09:01:58;;;;;;;6.82;4.75;;;17.90;44.20;;;;;;5069713;28;20043;-48
2021/01/07 09:04:31;;;;;;;6.32;4.22;;;17.90;44.20;;;;;;5077584;28;20052;-48
2021/01/07 09:07:04;;;;;;;4.55;3.50;;;17.90;44.10;;;;;;5074791;28;20052;-48
2021/01/07 09:09:41;;;;;;;4.90;2.60;;;17.90;44.20;;;;;;5073759;28;20463;-49
2021/01/07 09:12:13;;;;;;;9.10;4.55;;;17.90;44.30;;;;;;5078333;28;20048;-49
2021/01/07 09:15:00;;;;;;;10.45;5.70;;;17.90;44.20;;;;;;5073910;28;20445;-51
2021/01/07 09:17:38;;;;;;;;;;;17.90;44.10;;;;;;5075311;28;20048;-48
2021/01/07 09:20:06;;;;;;;;;;;17.80;44.10;;;;;;5071039;28;19927;-47
2021/01/07 09:22:33;;;;;;;7.45;6.15;;;17.70;44.20;;;;;;5076567;28;19928;-50
2021/01/07 09:25:00;;;;;;;8.80;5.75;;;17.70;44.20;;;;;;5074545;28;20629;-51
2021/01/07 09:27:28;;;;;;;11.80;6.00;;;17.80;44.20;;;;;;5078691;28;20748;-47
2021/01/07 09:29:55;;;;;;;9.00;5.75;;;17.80;44.20;;;;;;5076049;28;20477;-48
2021/01/07 09:32:21;;;;;;;10.45;5.78;;;17.80;44.20;;;;;;5076067;28;20129;-47
2021/01/07 09:34:48;;;;;;;9.70;5.20;;;17.80;44.10;;;;;;5072975;28;20626;-51
2021/01/07 09:37:18;;;;;;;6.55;3.75;;;17.80;44.10;;;;;;5074203;28;20057;-50
2021/01/07 09:39:47;;;;;;;5.03;3.67;;;17.80;44.10;;;;;;5081442;28;20481;-53
2021/01/07 09:42:14;;;;;;;6.47;4.90;;;17.80;44.10;;;;;;5073999;28;20041;-52
2021/01/07 09:44:41;;;;;;;7.68;3.95;;;17.80;44.00;;;;;;5075118;28;20040;-48
2021/01/07 09:47:07;;;;;;;5.75;4.18;;;17.80;44.10;;;;;;5072958;28;20512;-54
2021/01/07 09:49:35;;;;;;;10.90;4.85;;;17.80;44.00;;;;;;5077280;28;20044;-55
2021/01/07 09:52:02;;;;;;;8.85;5.25;;;17.80;44.00;;;;;;5074948;28;20059;-48
2021/01/07 09:54:30;;;;;;;8.52;5.00;;;17.90;44.00;;;;;;5078803;28;20040;-52
2021/01/07 09:56:58;;;;;;;3.50;3.10;;;17.90;44.00;;;;;;5079025;28;20039;-48
2021/01/07 09:59:27;;;;;;;9.10;5.53;;;17.90;44.20;;;;;;5075714;28;20044;-51
2021/01/07 10:01:54;;;;;;;11.27;5.07;;;17.90;44.20;;;;;;5071748;28;20051;-51
2021/01/07 10:04:21;;;;;;;7.80;5.45;;;17.90;44.10;;;;;;5079075;28;20053;-47
2021/01/07 10:06:48;;;;;;;7.53;5.45;;;17.90;44.10;;;;;;5081692;28;20095;-49
2021/01/07 10:09:15;;;;;;;9.00;5.32;;;17.90;44.10;;;;;;5074269;28;20041;-55
2021/01/07 10:11:43;;;;;;;9.15;4.80;;;17.90;44.00;;;;;;5072602;28;20740;-49
2021/01/07 10:14:09;;;;;;;9.45;5.50;;;17.90;44.00;;;;;;5074181;28;20036;-50
2021/01/07 10:16:36;;;;;;;7.95;4.22;;;17.90;44.00;;;;;;5077006;28;20072;-49
2021/01/07 10:19:03;;;;;;;6.72;3.95;;;17.80;43.90;;;;;;5074782;28;20246;-53
2021/01/07 10:21:32;;;;;;;8.65;4.45;;;17.90;43.90;;;;;;5078715;28;20067;-55
2021/01/07 10:24:00;;;;;;;7.15;4.50;;;17.90;43.90;;;;;;5080413;28;20043;-51
2021/01/07 10:26:27;;;;;;;9.73;5.00;;;17.90;43.90;;;;;;5076116;28;20048;-55
2021/01/07 10:28:54;;;;;;;8.27;4.95;;;17.80;43.80;;;;;;5074220;28;20052;-56
2021/01/07 10:31:21;;;;;;;9.00;5.38;;;17.90;43.90;;;;;;5075657;28;20515;-52
2021/01/07 10:33:47;;;;;;;8.52;4.40;;;17.90;44.00;;;;;;5085703;28;20045;-50
2021/01/07 10:36:15;;;;;;;10.85;5.18;;;17.80;43.90;;;;;;5079934;28;20065;-48
2021/01/07 10:38:42;;;;;;;7.05;4.40;;;17.90;44.00;;;;;;5079939;28;20051;-49
2021/01/07 10:41:09;;;;;;;8.45;5.40;;;17.90;43.90;;;;;;5077748;28;20585;-50
2021/01/07 10:43:36;;;;;;;9.40;5.05;;;17.90;43.90;;;;;;5080712;28;20047;-51
2021/01/07 10:46:04;;;;;;;7.85;4.70;;;17.90;43.90;;;;;;5090694;28;20082;-48
2021/01/07 10:48:35;;;;;;;6.60;4.53;;;17.90;43.90;;;;;;5088936;28;20055;-53
2021/01/07 10:51:03;;;;;;;7.43;4.53;;;17.80;43.90;;;;;;5089057;28;20047;-48
2021/01/07 10:53:58;;;;;;;9.38;5.72;;;17.90;43.90;;;;;;5079768;28;20047;-50
2021/01/07 10:56:29;;;;;;;7.28;4.60;;;17.90;43.80;;;;;;5077360;28;20542;-47
2021/01/07 10:59:17;;;;;;;9.57;4.70;;;17.90;43.90;;;;;;5073895;28;20109;-48
2021/01/07 11:02:30;;;;;;;8.93;6.00;;;17.90;43.90;;;;;;5087139;28;20515;-52
2021/01/07 11:05:18;;;;;;;7.72;4.20;;;17.90;43.90;;;;;;5072345;28;20053;-52
2021/01/07 11:07:57;;;;;;;7.50;4.88;;;17.80;43.90;;;;;;5074387;28;20044;-51
2021/01/07 11:10:26;;;;;;;10.00;5.28;;;17.80;43.90;;;;;;5078950;28;20049;-48
2021/01/07 11:12:56;;;;;;;8.27;5.53;;;17.80;44.00;;;;;;5078074;28;20074;-54
2021/01/07 11:15:27;;;;;;;9.98;6.10;;;17.80;43.90;;;;;;5081776;28;20048;-53
2021/01/07 11:17:58;;;;;;;9.20;5.30;;;17.80;43.80;;;;;;5081331;28;20368;-51
2021/01/07 11:20:27;;;;;;;10.00;5.63;;;17.90;43.90;;;;;;5078971;28;20040;-50
2021/01/07 11:22:55;;;;;;;10.60;4.85;;;17.80;43.80;;;;;;5073054;28;20044;-51
2021/01/07 11:25:23;;;;;;;9.27;5.95;;;17.80;43.80;;;;;;5080370;28;20462;-49
2021/01/07 11:27:50;;;;;;;7.18;4.65;;;17.90;43.90;;;;;;5084287;28;20079;-53
2021/01/07 11:30:22;;;;;;;8.70;5.60;;;17.80;43.80;;;;;;5077356;28;20048;-50
2021/01/07 11:32:51;;;;;;;8.07;5.20;;;17.80;43.80;;;;;;5077387;28;20048;-51
2021/01/07 11:35:18;;;;;;;8.57;4.47;;;17.80;43.80;;;;;;5079440;28;20117;-50
2021/01/07 11:37:54;;;;;;;7.68;4.55;;;17.80;43.90;;;;;;5079048;28;20087;-49
2021/01/07 11:40:26;;;;;;;9.20;3.20;;;17.80;44.00;;;;;;5076432;28;20055;-47
2021/01/07 11:43:24;;;;;;;9.13;4.90;;;17.80;44.10;;;;;;5081505;28;20044;-52
2021/01/07 11:45:56;;;;;;;10.63;4.90;;;17.90;44.20;;;;;;5044390;28;20045;-51
2021/01/07 11:48:25;;;;;;;90.90;71.50;;;17.80;44.40;;;;;;5036036;28;20120;-49
2021/01/07 11:51:00;;;;;;;22.65;16.05;;;17.80;45.00;;;;;;5041936;28;20049;-50
2021/01/07 11:53:29;;;;;;;21.20;15.60;;;17.90;45.20;;;;;;5037551;28;20465;-51
2021/01/07 11:55:58;;;;;;;22.92;18.33;;;17.90;45.40;;;;;;5040390;28;20508;-49
2021/01/07 11:58:27;;;;;;;27.73;16.20;;;17.80;45.80;;;;;;5037754;28;20050;-52
2021/01/07 12:00:55;;;;;;;20.88;16.17;;;17.80;45.80;;;;;;5033410;28;20049;-52
2021/01/07 12:03:27;;;;;;;24.60;15.73;;;17.80;46.00;;;;;;5037581;28;20041;-55
2021/01/07 12:05:59;;;;;;;22.80;14.77;;;17.90;46.10;;;;;;5041265;28;20049;-54
2021/01/07 12:08:45;;;;;;;20.23;13.98;;;17.80;46.20;;;;;;5034174;28;20128;-48
2021/01/07 12:11:19;;;;;;;17.08;13.90;;;17.90;46.50;;;;;;5032803;28;20125;-49
2021/01/07 12:13:53;;;;;;;19.20;13.13;;;17.90;46.60;;;;;;5039759;28;20077;-50
2021/01/07 12:16:27;;;;;;;16.48;12.65;;;17.90;46.50;;;;;;5045058;28;20451;-50
2021/01/07 12:18:56;;;;;;;23.38;13.43;;;17.90;46.50;;;;;;5041651;28;20156;-50
2021/01/07 12:21:26;;;;;;;18.02;12.77;;;17.90;46.40;;;;;;5053341;28;20056;-51
2021/01/07 12:23:54;;;;;;;15.63;12.45;;;17.90;46.40;;;;;;5045442;28;20092;-54
2021/01/07 12:26:22;;;;;;;16.85;13.23;;;17.90;46.40;;;;;;5035719;28;20140;-53
2021/01/07 12:28:52;;;;;;;13.68;12.35;;;17.90;46.40;;;;;;5037608;28;20056;-51
2021/01/07 12:31:21;;;;;;;21.40;12.07;;;17.90;46.40;;;;;;5035173;28;20131;-53
2021/01/07 12:33:58;;;;;;;15.45;12.52;;;17.90;46.40;;;;;;5039166;28;20536;-53
2021/01/07 12:36:38;;;;;;;16.58;12.20;;;17.90;46.40;;;;;;5041667;28;20049;-54
2021/01/07 12:39:07;;;;;;;15.65;11.73;;;17.90;46.40;;;;;;5038799;28;20064;-53
2021/01/07 12:41:45;;;;;;;12.98;11.18;;;17.90;46.40;;;;;;5039432;28;20122;-52
2021/01/07 12:44:14;;;;;;;15.57;10.63;;;17.90;46.50;;;;;;5053845;28;20067;-51
2021/01/07 12:46:47;;;;;;;13.40;11.80;;;17.90;46.40;;;;;;5073663;28;20048;-50
2021/01/07 12:49:16;;;;;;;13.70;10.35;;;17.90;46.50;;;;;;5079192;28;20527;-53
2021/01/07 12:51:44;;;;;;;13.23;9.80;;;17.90;46.40;;;;;;5079158;28;20517;-50
2021/01/07 12:54:13;;;;;;;12.73;9.75;;;17.90;46.40;;;;;;5079766;28;20531;-51